createdAt,value
2018-07-08T00:00:52.236Z,59.53
2018-07-08T00:01:52.156Z,59.52
2018-07-08T00:02:52.313Z,59.52
2018-07-08T00:03:52.099Z,59.53
2018-07-08T00:04:52.170Z,59.52
2018-07-08T00:05:52.239Z,59.52
2018-07-08T00:06:54.078Z,59.46
2018-07-08T00:07:52.200Z,59.51
2018-07-08T00:08:52.286Z,59.49
2018-07-08T00:09:52.116Z,59.48
2018-07-08T00:10:52.101Z,59.51
2018-07-08T00:11:52.278Z,59.5
2018-07-08T00:12:52.231Z,59.5
2018-07-08T00:13:52.241Z,59.46
2018-07-08T00:14:52.275Z,59.51
2018-07-08T00:15:52.248Z,59.51
2018-07-08T00:16:52.185Z,59.49
2018-07-08T00:17:52.203Z,59.48
2018-07-08T00:18:52.206Z,59.5
2018-07-08T00:19:52.143Z,59.5
2018-07-08T00:20:52.227Z,59.5
2018-07-08T00:21:54.674Z,59.52
2018-07-08T00:22:52.166Z,59.46
2018-07-08T00:23:52.216Z,59.48
2018-07-08T00:24:52.147Z,59.49
2018-07-08T00:25:52.185Z,59.49
2018-07-08T00:26:52.183Z,59.48
2018-07-08T00:27:52.266Z,59.46
2018-07-08T00:28:52.557Z,59.48
2018-07-08T00:29:52.230Z,59.49
2018-07-08T00:30:52.136Z,59.51
2018-07-08T00:31:52.227Z,59.5
2018-07-08T00:32:52.129Z,59.45
2018-07-08T00:33:52.293Z,59.48
2018-07-08T00:34:52.270Z,59.49
2018-07-08T00:35:52.224Z,59.52
2018-07-08T00:36:52.125Z,59.5
2018-07-08T00:37:54.453Z,59.49
2018-07-08T00:38:52.288Z,59.45
2018-07-08T00:39:53.214Z,59.49
2018-07-08T00:40:52.193Z,59.46
2018-07-08T00:41:52.314Z,59.52
2018-07-08T00:42:52.167Z,59.49
2018-07-08T00:43:52.243Z,59.49
2018-07-08T00:44:54.491Z,59.49
2018-07-08T00:45:52.189Z,59.49
2018-07-08T00:46:52.235Z,59.46
2018-07-08T00:47:52.297Z,59.49
2018-07-08T00:48:52.225Z,59.5
2018-07-08T00:49:52.204Z,59.49
2018-07-08T00:50:52.269Z,59.45
2018-07-08T00:51:52.187Z,59.51
2018-07-08T00:52:52.268Z,59.49
2018-07-08T00:53:52.370Z,59.45
2018-07-08T00:54:52.095Z,59.44
2018-07-08T00:55:54.792Z,59.45
2018-07-08T00:56:52.145Z,59.49
2018-07-08T00:57:52.181Z,59.45
2018-07-08T00:58:52.200Z,59.47
2018-07-08T00:59:52.126Z,59.48
2018-07-08T01:00:52.276Z,59.45
2018-07-08T01:01:52.300Z,59.45
2018-07-08T01:02:54.526Z,59.51
2018-07-08T01:03:52.154Z,59.49
2018-07-08T01:04:54.556Z,59.45
2018-07-08T01:05:52.171Z,59.46
2018-07-08T01:06:54.145Z,59.48
2018-07-08T01:07:52.527Z,59.48
2018-07-08T01:08:52.748Z,59.46
2018-07-08T01:09:52.277Z,59.47
2018-07-08T01:10:52.142Z,59.47
2018-07-08T01:11:52.189Z,59.46
2018-07-08T01:12:52.155Z,59.48
2018-07-08T01:13:52.205Z,59.46
2018-07-08T01:14:52.303Z,59.49
2018-07-08T01:15:52.329Z,59.48
2018-07-08T01:16:52.212Z,59.47
2018-07-08T01:17:54.857Z,59.46
2018-07-08T01:18:52.142Z,59.45
2018-07-08T01:19:52.154Z,59.49
2018-07-08T01:20:52.181Z,59.49
2018-07-08T01:21:52.143Z,59.47
2018-07-08T01:22:52.159Z,59.48
2018-07-08T01:23:52.185Z,59.41
2018-07-08T01:24:54.964Z,59.48
2018-07-08T01:25:52.215Z,59.47
2018-07-08T01:26:54.160Z,59.46
2018-07-08T01:27:52.235Z,59.44
2018-07-08T01:28:52.230Z,59.45
2018-07-08T01:29:52.194Z,59.48
2018-07-08T01:30:52.218Z,59.45
2018-07-08T01:31:52.308Z,59.43
2018-07-08T01:32:52.268Z,59.45
2018-07-08T01:33:52.377Z,59.45
2018-07-08T01:34:52.195Z,59.47
2018-07-08T01:35:52.189Z,59.44
2018-07-08T01:36:52.179Z,59.47
2018-07-08T01:37:52.192Z,59.5
2018-07-08T01:38:52.265Z,59.46
2018-07-08T01:39:52.230Z,59.49
2018-07-08T01:40:52.250Z,59.45
2018-07-08T01:41:54.418Z,59.44
2018-07-08T01:42:54.522Z,59.45
2018-07-08T01:43:52.295Z,59.44
2018-07-08T01:44:52.198Z,59.45
2018-07-08T01:45:52.180Z,59.44
2018-07-08T01:46:54.432Z,59.41
2018-07-08T01:47:52.233Z,59.42
2018-07-08T01:48:52.174Z,59.43
2018-07-08T01:49:52.323Z,59.41
2018-07-08T01:50:52.339Z,59.42
2018-07-08T01:51:52.170Z,59.47
2018-07-08T01:52:52.294Z,59.48
2018-07-08T01:53:52.293Z,59.47
2018-07-08T01:54:52.188Z,59.44
2018-07-08T01:55:52.270Z,59.43
2018-07-08T01:56:52.357Z,59.43
2018-07-08T01:57:52.279Z,59.43
2018-07-08T01:58:52.265Z,59.4
2018-07-08T01:59:52.330Z,59.41
2018-07-08T02:00:52.191Z,59.42
2018-07-08T02:01:52.547Z,59.42
2018-07-08T02:02:52.270Z,59.43
2018-07-08T02:03:52.261Z,59.42
2018-07-08T02:04:52.332Z,59.4
2018-07-08T02:05:54.983Z,59.41
2018-07-08T02:06:52.606Z,59.44
2018-07-08T02:07:52.578Z,59.42
2018-07-08T02:08:52.349Z,59.45
2018-07-08T02:09:52.191Z,59.42
2018-07-08T02:10:54.503Z,59.43
2018-07-08T02:11:55.018Z,59.43
2018-07-08T02:12:52.211Z,59.45
2018-07-08T02:13:55.120Z,59.45
2018-07-08T02:14:52.219Z,59.44
2018-07-08T02:15:52.203Z,59.43
2018-07-08T02:16:52.251Z,59.41
2018-07-08T02:17:52.300Z,59.4
2018-07-08T02:18:52.601Z,59.39
2018-07-08T02:19:52.288Z,59.43
2018-07-08T02:20:52.239Z,59.42
2018-07-08T02:22:02.082Z,59.42
2018-07-08T02:22:52.218Z,59.42
2018-07-08T02:23:52.275Z,59.4
2018-07-08T02:24:52.272Z,59.42
2018-07-08T02:25:52.256Z,59.42
2018-07-08T02:26:52.593Z,59.43
2018-07-08T02:27:52.327Z,59.42
2018-07-08T02:28:52.293Z,59.43
2018-07-08T02:29:52.228Z,59.41
2018-07-08T02:30:52.562Z,59.42
2018-07-08T02:31:52.227Z,59.38
2018-07-08T02:32:52.315Z,59.4
2018-07-08T02:33:52.248Z,59.36
2018-07-08T02:34:52.500Z,59.42
2018-07-08T02:35:52.350Z,59.42
2018-07-08T02:36:52.321Z,59.41
2018-07-08T02:37:52.370Z,59.42
2018-07-08T02:38:52.564Z,59.39
2018-07-08T02:39:52.608Z,59.42
2018-07-08T02:40:52.228Z,59.41
2018-07-08T02:41:52.223Z,59.41
2018-07-08T02:42:52.344Z,59.41
2018-07-08T02:43:52.266Z,59.42
2018-07-08T02:44:52.249Z,59.4
2018-07-08T02:45:52.285Z,59.38
2018-07-08T02:46:52.306Z,59.43
2018-07-08T02:47:52.580Z,59.41
2018-07-08T02:48:52.499Z,59.4
2018-07-08T02:49:52.288Z,59.39
2018-07-08T02:50:52.276Z,59.39
2018-07-08T02:51:53.944Z,59.38
2018-07-08T02:52:52.258Z,59.38
2018-07-08T02:53:52.389Z,59.43
2018-07-08T02:54:52.378Z,59.4
2018-07-08T02:55:52.636Z,59.37
2018-07-08T02:56:52.353Z,59.39
2018-07-08T02:57:52.265Z,59.41
2018-07-08T02:58:52.214Z,59.36
2018-07-08T02:59:52.428Z,59.4
2018-07-08T03:00:52.348Z,59.39
2018-07-08T03:01:52.233Z,59.39
2018-07-08T03:02:52.372Z,59.37
2018-07-08T03:03:52.598Z,59.37
2018-07-08T03:04:52.262Z,59.43
2018-07-08T03:05:52.385Z,59.39
2018-07-08T03:06:51.780Z,59.41
2018-07-08T03:07:52.196Z,59.41
2018-07-08T03:08:52.298Z,59.41
2018-07-08T03:09:52.549Z,59.4
2018-07-08T03:10:52.293Z,59.36
2018-07-08T03:11:52.236Z,59.37
2018-07-08T03:12:52.620Z,59.37
2018-07-08T03:13:52.310Z,59.38
2018-07-08T03:14:52.531Z,59.38
2018-07-08T03:15:52.552Z,59.39
2018-07-08T03:16:52.324Z,59.37
2018-07-08T03:17:52.793Z,59.38
2018-07-08T03:18:52.330Z,59.39
2018-07-08T03:19:52.636Z,59.39
2018-07-08T03:20:52.552Z,59.37
2018-07-08T03:21:52.266Z,59.38
2018-07-08T03:22:52.285Z,59.38
2018-07-08T03:23:52.320Z,59.38
2018-07-08T03:24:52.236Z,59.35
2018-07-08T03:25:52.295Z,59.36
2018-07-08T03:27:01.955Z,59.34
2018-07-08T03:27:52.396Z,59.36
2018-07-08T03:28:52.344Z,59.34
2018-07-08T03:29:52.592Z,59.37
2018-07-08T03:30:52.241Z,59.32
2018-07-08T03:31:52.609Z,59.35
2018-07-08T03:32:52.340Z,59.34
2018-07-08T03:33:52.387Z,59.38
2018-07-08T03:34:52.268Z,59.36
2018-07-08T03:35:52.551Z,59.34
2018-07-08T03:36:52.279Z,59.35
2018-07-08T03:37:52.621Z,59.38
2018-07-08T03:38:52.647Z,59.36
2018-07-08T03:39:52.323Z,59.32
2018-07-08T03:40:52.354Z,59.36
2018-07-08T03:41:52.284Z,59.33
2018-07-08T03:42:52.347Z,59.31
2018-07-08T03:43:54.854Z,59.36
2018-07-08T03:44:52.317Z,59.32
2018-07-08T03:45:52.339Z,59.34
2018-07-08T03:46:52.332Z,59.36
2018-07-08T03:47:52.292Z,59.32
2018-07-08T03:48:52.330Z,59.3
2018-07-08T03:49:52.306Z,59.31
2018-07-08T03:50:52.335Z,59.34
2018-07-08T03:51:52.229Z,59.34
2018-07-08T03:52:52.353Z,59.32
2018-07-08T03:53:52.547Z,59.32
2018-07-08T03:54:52.339Z,59.38
2018-07-08T03:55:52.566Z,59.34
2018-07-08T03:56:52.514Z,59.35
2018-07-08T03:57:52.563Z,59.3
2018-07-08T03:58:52.272Z,59.32
2018-07-08T03:59:52.595Z,59.33
2018-07-08T04:00:52.592Z,59.35
2018-07-08T04:01:54.839Z,59.34
2018-07-08T04:02:52.555Z,59.31
2018-07-08T04:03:52.615Z,59.3
2018-07-08T04:04:52.245Z,59.34
2018-07-08T04:05:52.395Z,59.34
2018-07-08T04:06:52.380Z,59.34
2018-07-08T04:07:52.269Z,59.33
2018-07-08T04:08:52.340Z,59.32
2018-07-08T04:09:52.449Z,59.31
2018-07-08T04:10:52.217Z,59.34
2018-07-08T04:11:51.748Z,59.33
2018-07-08T04:12:52.572Z,59.33
2018-07-08T04:13:52.380Z,59.28
2018-07-08T04:14:52.643Z,59.32
2018-07-08T04:15:52.369Z,59.29
2018-07-08T04:16:52.666Z,59.29
2018-07-08T04:17:52.360Z,59.28
2018-07-08T04:18:52.281Z,59.29
2018-07-08T04:19:52.381Z,59.29
2018-07-08T04:20:52.575Z,59.31
2018-07-08T04:21:53.031Z,59.31
2018-07-08T04:22:52.270Z,59.26
2018-07-08T04:23:52.250Z,59.29
2018-07-08T04:24:52.400Z,59.28
2018-07-08T04:25:52.613Z,59.25
2018-07-08T04:26:52.381Z,59.25
2018-07-08T04:27:52.616Z,59.28
2018-07-08T04:28:54.775Z,59.25
2018-07-08T04:29:51.826Z,59.31
2018-07-08T04:30:52.850Z,59.28
2018-07-08T04:31:52.665Z,59.28
2018-07-08T04:32:52.318Z,59.29
2018-07-08T04:33:52.357Z,59.28
2018-07-08T04:34:52.321Z,59.29
2018-07-08T04:35:52.467Z,59.29
2018-07-08T04:36:52.343Z,59.31
2018-07-08T04:37:52.557Z,59.29
2018-07-08T04:38:51.899Z,59.3
2018-07-08T04:39:52.583Z,59.3
2018-07-08T04:40:52.696Z,59.23
2018-07-08T04:41:52.640Z,59.29
2018-07-08T04:42:52.672Z,59.25
2018-07-08T04:43:52.338Z,59.26
2018-07-08T04:44:52.533Z,59.27
2018-07-08T04:45:52.563Z,59.3
2018-07-08T04:46:52.674Z,59.3
2018-07-08T04:47:52.891Z,59.28
2018-07-08T04:48:52.328Z,59.3
2018-07-08T04:49:52.611Z,59.28
2018-07-08T04:50:52.213Z,59.29
2018-07-08T04:51:52.196Z,59.26
2018-07-08T04:52:52.610Z,59.28
2018-07-08T04:53:52.297Z,59.28
2018-07-08T04:54:51.901Z,59.3
2018-07-08T04:55:52.205Z,59.28
2018-07-08T04:56:52.365Z,59.28
2018-07-08T04:57:52.213Z,59.27
2018-07-08T04:58:51.908Z,59.31
2018-07-08T04:59:51.909Z,59.27
2018-07-08T05:00:52.637Z,59.26
2018-07-08T05:01:52.132Z,59.26
2018-07-08T05:02:52.315Z,59.3
2018-07-08T05:03:52.693Z,59.28
2018-07-08T05:04:54.788Z,59.29
2018-07-08T05:05:52.225Z,59.3
2018-07-08T05:06:52.363Z,59.29
2018-07-08T05:07:51.871Z,59.28
2018-07-08T05:08:52.440Z,59.25
2018-07-08T05:09:51.841Z,59.28
2018-07-08T05:10:52.690Z,59.27
2018-07-08T05:11:52.666Z,59.28
2018-07-08T05:12:52.544Z,59.29
2018-07-08T05:13:52.377Z,59.26
2018-07-08T05:14:52.983Z,59.26
2018-07-08T05:15:52.323Z,59.26
2018-07-08T05:16:52.549Z,59.24
2018-07-08T05:17:52.381Z,59.26
2018-07-08T05:18:52.597Z,59.27
2018-07-08T05:19:52.565Z,59.25
2018-07-08T05:20:53.093Z,59.28
2018-07-08T05:21:52.617Z,59.26
2018-07-08T05:22:52.469Z,59.27
2018-07-08T05:23:52.393Z,59.26
2018-07-08T05:24:51.867Z,59.24
2018-07-08T05:25:51.862Z,59.26
2018-07-08T05:26:52.590Z,59.23
2018-07-08T05:27:54.497Z,59.27
2018-07-08T05:28:52.482Z,59.28
2018-07-08T05:29:52.733Z,59.25
2018-07-08T05:30:52.436Z,59.27
2018-07-08T05:31:52.343Z,59.28
2018-07-08T05:32:52.639Z,59.28
2018-07-08T05:33:52.390Z,59.29
2018-07-08T05:34:52.235Z,59.3
2018-07-08T05:35:52.390Z,59.28
2018-07-08T05:37:02.009Z,59.31
2018-07-08T05:37:52.597Z,59.31
2018-07-08T05:38:52.636Z,59.3
2018-07-08T05:39:52.332Z,59.27
2018-07-08T05:40:52.682Z,59.3
2018-07-08T05:41:52.683Z,59.25
2018-07-08T05:42:52.718Z,59.28
2018-07-08T05:43:52.588Z,59.28
2018-07-08T05:44:52.602Z,59.28
2018-07-08T05:45:51.748Z,59.31
2018-07-08T05:46:52.629Z,59.29
2018-07-08T05:47:52.596Z,59.28
2018-07-08T05:48:51.873Z,59.25
2018-07-08T05:49:52.176Z,59.24
2018-07-08T05:50:52.615Z,59.28
2018-07-08T05:51:51.884Z,59.31
2018-07-08T05:52:52.597Z,59.25
2018-07-08T05:53:52.687Z,59.3
2018-07-08T05:54:51.868Z,59.27
2018-07-08T05:55:51.869Z,59.31
2018-07-08T05:56:52.209Z,59.23
2018-07-08T05:57:52.650Z,59.25
2018-07-08T05:58:52.229Z,59.3
2018-07-08T05:59:51.877Z,59.28
2018-07-08T06:00:52.734Z,59.29
2018-07-08T06:01:52.560Z,59.27
2018-07-08T06:02:53.009Z,59.26
2018-07-08T06:03:51.856Z,59.28
2018-07-08T06:04:51.913Z,59.27
2018-07-08T06:05:51.874Z,59.28
2018-07-08T06:06:51.956Z,59.28
2018-07-08T06:07:53.007Z,59.27
2018-07-08T06:08:55.020Z,59.26
2018-07-08T06:09:51.957Z,59.25
2018-07-08T06:10:52.584Z,59.27
2018-07-08T06:11:52.823Z,59.26
2018-07-08T06:12:51.849Z,59.3
2018-07-08T06:13:52.585Z,59.3
2018-07-08T06:14:52.622Z,59.26
2018-07-08T06:15:52.727Z,59.29
2018-07-08T06:16:52.797Z,59.3
2018-07-08T06:17:52.376Z,59.27
2018-07-08T06:18:51.974Z,59.28
2018-07-08T06:19:52.601Z,59.28
2018-07-08T06:20:52.679Z,59.28
2018-07-08T06:21:52.694Z,59.26
2018-07-08T06:22:52.756Z,59.26
2018-07-08T06:23:52.660Z,59.29
2018-07-08T06:24:52.631Z,59.28
2018-07-08T06:25:52.752Z,59.24
2018-07-08T06:26:52.220Z,59.22
2018-07-08T06:27:52.722Z,59.23
2018-07-08T06:28:52.699Z,59.26
2018-07-08T06:29:52.630Z,59.29
2018-07-08T06:30:51.886Z,59.27
2018-07-08T06:31:52.362Z,59.24
2018-07-08T06:32:51.900Z,59.24
2018-07-08T06:33:51.869Z,59.28
2018-07-08T06:34:51.854Z,59.25
2018-07-08T06:35:52.630Z,59.28
2018-07-08T06:36:52.727Z,59.28
2018-07-08T06:37:52.393Z,59.25
2018-07-08T06:38:52.474Z,59.24
2018-07-08T06:39:51.852Z,59.27
2018-07-08T06:40:52.642Z,59.26
2018-07-08T06:41:52.618Z,59.28
2018-07-08T06:42:52.644Z,59.23
2018-07-08T06:43:51.876Z,59.26
2018-07-08T06:44:51.939Z,59.28
2018-07-08T06:45:51.860Z,59.22
2018-07-08T06:46:52.665Z,59.26
2018-07-08T06:47:52.310Z,59.25
2018-07-08T06:48:51.901Z,59.25
2018-07-08T06:49:53.922Z,59.23
2018-07-08T06:50:51.869Z,59.28
2018-07-08T06:51:53.155Z,59.24
2018-07-08T06:52:55.142Z,59.22
2018-07-08T06:53:52.657Z,59.26
2018-07-08T06:54:52.769Z,59.23
2018-07-08T06:55:51.928Z,59.26
2018-07-08T06:56:52.722Z,59.21
2018-07-08T06:57:52.960Z,59.25
2018-07-08T06:58:52.682Z,59.21
2018-07-08T06:59:52.261Z,59.25
2018-07-08T07:00:51.895Z,59.25
2018-07-08T07:01:51.950Z,59.23
2018-07-08T07:02:52.646Z,59.25
2018-07-08T07:03:52.650Z,59.24
2018-07-08T07:04:51.886Z,59.24
2018-07-08T07:05:51.942Z,59.22
2018-07-08T07:06:51.864Z,59.23
2018-07-08T07:07:51.955Z,59.22
2018-07-08T07:08:52.764Z,59.25
2018-07-08T07:09:52.316Z,59.2
2018-07-08T07:10:51.815Z,59.25
2018-07-08T07:11:52.681Z,59.2
2018-07-08T07:12:52.684Z,59.21
2018-07-08T07:13:51.930Z,59.19
2018-07-08T07:14:51.968Z,59.2
2018-07-08T07:15:51.852Z,59.22
2018-07-08T07:16:52.241Z,59.2
2018-07-08T07:17:51.949Z,59.2
2018-07-08T07:18:52.779Z,59.22
2018-07-08T07:19:51.909Z,59.2
2018-07-08T07:20:52.641Z,59.18
2018-07-08T07:21:51.975Z,59.23
2018-07-08T07:22:52.478Z,59.24
2018-07-08T07:23:52.748Z,59.18
2018-07-08T07:24:51.841Z,59.23
2018-07-08T07:25:51.906Z,59.19
2018-07-08T07:26:51.911Z,59.2
2018-07-08T07:27:51.933Z,59.18
2018-07-08T07:28:51.963Z,59.19
2018-07-08T07:29:51.912Z,59.18
2018-07-08T07:30:51.956Z,59.18
2018-07-08T07:31:51.912Z,59.16
2018-07-08T07:32:51.947Z,59.18
2018-07-08T07:33:51.803Z,59.19
2018-07-08T07:34:51.859Z,59.19
2018-07-08T07:35:52.709Z,59.22
2018-07-08T07:36:52.256Z,59.16
2018-07-08T07:37:52.737Z,59.17
2018-07-08T07:38:52.699Z,59.17
2018-07-08T07:39:51.864Z,59.16
2018-07-08T07:40:51.905Z,59.17
2018-07-08T07:41:52.830Z,59.18
2018-07-08T07:42:52.684Z,59.21
2018-07-08T07:43:52.695Z,59.19
2018-07-08T07:44:52.706Z,59.17
2018-07-08T07:45:51.932Z,59.18
2018-07-08T07:46:51.997Z,59.17
2018-07-08T07:47:51.945Z,59.11
2018-07-08T07:48:51.910Z,59.19
2018-07-08T07:49:52.667Z,59.16
2018-07-08T07:50:51.824Z,59.18
2018-07-08T07:51:51.882Z,59.18
2018-07-08T07:52:52.721Z,59.2
2018-07-08T07:53:52.836Z,59.16
2018-07-08T07:54:51.930Z,59.17
2018-07-08T07:55:51.885Z,59.13
2018-07-08T07:56:52.008Z,59.19
2018-07-08T07:57:52.313Z,59.2
2018-07-08T07:58:52.987Z,59.14
2018-07-08T07:59:51.982Z,59.16
2018-07-08T08:00:51.865Z,59.13
2018-07-08T08:01:52.727Z,59.16
2018-07-08T08:02:52.589Z,59.14
2018-07-08T08:03:51.867Z,59.16
2018-07-08T08:04:51.973Z,59.16
2018-07-08T08:05:52.331Z,59.16
2018-07-08T08:06:51.896Z,59.15
2018-07-08T08:07:52.811Z,59.13
2018-07-08T08:08:51.903Z,59.13
2018-07-08T08:09:51.929Z,59.18
2018-07-08T08:10:51.918Z,59.14
2018-07-08T08:11:51.966Z,59.1
2018-07-08T08:12:52.714Z,59.13
2018-07-08T08:13:52.932Z,59.18
2018-07-08T08:14:52.701Z,59.15
2018-07-08T08:15:51.937Z,59.12
2018-07-08T08:16:52.784Z,59.17
2018-07-08T08:17:53.045Z,59.14
2018-07-08T08:18:51.987Z,59.05
2018-07-08T08:19:52.743Z,59.01
2018-07-08T08:20:51.903Z,58.93
2018-07-08T08:21:51.935Z,58.82
2018-07-08T08:22:51.939Z,58.98
2018-07-08T08:23:52.004Z,59.12
2018-07-08T08:24:52.009Z,59.05
2018-07-08T08:25:52.299Z,59
2018-07-08T08:26:52.584Z,58.99
2018-07-08T08:27:51.839Z,58.93
2018-07-08T08:28:52.375Z,58.77
2018-07-08T08:29:51.806Z,58.81
2018-07-08T08:30:51.759Z,58.75
2018-07-08T08:31:51.932Z,58.84
2018-07-08T08:32:52.982Z,58.82
2018-07-08T08:33:51.990Z,58.84
2018-07-08T08:34:51.819Z,58.74
2018-07-08T08:35:51.805Z,58.65
2018-07-08T08:36:52.747Z,58.55
2018-07-08T08:37:52.596Z,58.49
2018-07-08T08:38:52.742Z,58.46
2018-07-08T08:39:51.964Z,58.43
2018-07-08T08:40:51.944Z,58.26
2018-07-08T08:41:51.993Z,58.32
2018-07-08T08:42:51.985Z,58.4
2018-07-08T08:43:51.927Z,58.37
2018-07-08T08:44:51.803Z,58.36
2018-07-08T08:45:52.371Z,58.31
2018-07-08T08:46:52.693Z,58.35
2018-07-08T08:47:51.976Z,58.39
2018-07-08T08:48:52.037Z,58.47
2018-07-08T08:49:52.816Z,58.21
2018-07-08T08:50:52.776Z,58.56
2018-07-08T08:51:51.939Z,58.51
2018-07-08T08:52:51.952Z,58.24
2018-07-08T08:53:51.983Z,58.2
2018-07-08T08:54:51.883Z,58.34
2018-07-08T08:55:52.035Z,58.21
2018-07-08T08:56:51.946Z,58.34
2018-07-08T08:57:51.909Z,58.28
2018-07-08T08:58:51.979Z,58.27
2018-07-08T08:59:52.726Z,58.36
2018-07-08T09:00:51.868Z,58.33
2018-07-08T09:01:52.791Z,58.25
2018-07-08T09:02:52.899Z,58.28
2018-07-08T09:03:51.845Z,58.23
2018-07-08T09:04:51.935Z,58.13
2018-07-08T09:05:51.872Z,58.22
2018-07-08T09:06:52.018Z,58.25
2018-07-08T09:07:51.972Z,58.19
2018-07-08T09:08:51.984Z,58.27
2018-07-08T09:09:51.968Z,58.11
2018-07-08T09:10:53.294Z,58.16
2018-07-08T09:11:51.912Z,58.21
2018-07-08T09:12:51.879Z,58.26
2018-07-08T09:13:51.979Z,58.14
2018-07-08T09:14:51.912Z,58.07
2018-07-08T09:15:51.983Z,57.94
2018-07-08T09:16:52.823Z,58.07
2018-07-08T09:17:52.011Z,58.23
2018-07-08T09:18:51.995Z,58.38
2018-07-08T09:19:52.028Z,58.52
2018-07-08T09:20:51.979Z,58.55
2018-07-08T09:21:51.866Z,58.5
2018-07-08T09:22:51.980Z,58.5
2018-07-08T09:23:52.983Z,58.53
2018-07-08T09:24:51.921Z,58.57
2018-07-08T09:25:51.864Z,58.57
2018-07-08T09:26:52.003Z,58.47
2018-07-08T09:27:51.900Z,58.47
2018-07-08T09:28:51.919Z,58.45
2018-07-08T09:29:51.979Z,58.41
2018-07-08T09:30:51.817Z,58.35
2018-07-08T09:31:51.869Z,58.39
2018-07-08T09:32:51.800Z,58.37
2018-07-08T09:33:51.994Z,58.37
2018-07-08T09:34:51.890Z,58.35
2018-07-08T09:35:51.981Z,58.34
2018-07-08T09:36:51.871Z,58.3
2018-07-08T09:37:52.868Z,58.32
2018-07-08T09:38:54.200Z,58.34
2018-07-08T09:39:52.085Z,58.29
2018-07-08T09:40:51.931Z,58.3
2018-07-08T09:41:51.772Z,58.3
2018-07-08T09:42:51.833Z,58.4
2018-07-08T09:43:52.795Z,58.41
2018-07-08T09:44:52.659Z,58.39
2018-07-08T09:45:52.683Z,58.29
2018-07-08T09:46:51.904Z,58.33
2018-07-08T09:47:51.817Z,58.33
2018-07-08T09:48:51.914Z,58.29
2018-07-08T09:49:51.916Z,58.33
2018-07-08T09:50:51.751Z,58.32
2018-07-08T09:51:52.064Z,58.24
2018-07-08T09:52:52.077Z,58.27
2018-07-08T09:53:51.799Z,58.35
2018-07-08T09:54:51.885Z,58.39
2018-07-08T09:55:52.066Z,58.33
2018-07-08T09:56:52.001Z,58.41
2018-07-08T09:57:52.014Z,58.34
2018-07-08T09:58:52.638Z,58.35
2018-07-08T09:59:51.940Z,58.42
2018-07-08T10:00:52.077Z,58.44
2018-07-08T10:01:52.786Z,58.63
2018-07-08T10:02:52.005Z,58.61
2018-07-08T10:03:51.840Z,58.72
2018-07-08T10:04:52.764Z,58.69
2018-07-08T10:05:51.975Z,58.76
2018-07-08T10:06:51.988Z,58.79
2018-07-08T10:07:51.937Z,58.75
2018-07-08T10:08:51.815Z,58.83
2018-07-08T10:09:51.966Z,58.79
2018-07-08T10:10:53.113Z,58.78
2018-07-08T10:11:53.225Z,58.85
2018-07-08T10:12:51.996Z,58.96
2018-07-08T10:13:53.417Z,58.98
2018-07-08T10:14:52.746Z,58.95
2018-07-08T10:15:51.883Z,58.92
2018-07-08T10:16:52.799Z,58.85
2018-07-08T10:17:53.674Z,58.99
2018-07-08T10:18:53.038Z,58.86
2018-07-08T10:19:54.331Z,58.89
2018-07-08T10:20:52.835Z,59.03
2018-07-08T10:21:51.843Z,58.96
2018-07-08T10:22:51.980Z,59
2018-07-08T10:23:52.028Z,58.96
2018-07-08T10:24:52.113Z,58.99
2018-07-08T10:25:52.013Z,59.13
2018-07-08T10:26:52.015Z,58.99
2018-07-08T10:27:51.870Z,58.93
2018-07-08T10:28:51.967Z,59.11
2018-07-08T10:29:52.001Z,59.03
2018-07-08T10:30:51.902Z,58.99
2018-07-08T10:31:52.028Z,59.03
2018-07-08T10:32:51.946Z,59.1
2018-07-08T10:33:51.935Z,58.99
2018-07-08T10:34:51.953Z,58.98
2018-07-08T10:35:51.737Z,58.94
2018-07-08T10:36:52.009Z,58.91
2018-07-08T10:37:52.869Z,59.09
2018-07-08T10:38:52.034Z,58.97
2018-07-08T10:39:51.838Z,58.88
2018-07-08T10:40:52.739Z,59.02
2018-07-08T10:41:52.117Z,59.05
2018-07-08T10:42:51.990Z,58.98
2018-07-08T10:43:51.937Z,58.91
2018-07-08T10:44:51.696Z,58.96
2018-07-08T10:45:51.897Z,58.73
2018-07-08T10:46:52.113Z,58.58
2018-07-08T10:47:51.999Z,58.91
2018-07-08T10:48:51.858Z,58.59
2018-07-08T10:49:51.874Z,58.41
2018-07-08T10:50:51.837Z,58.83
2018-07-08T10:51:51.826Z,59.02
2018-07-08T10:52:52.036Z,58.96
2018-07-08T10:53:51.773Z,58.84
2018-07-08T10:54:51.934Z,58.96
2018-07-08T10:55:51.992Z,59.09
2018-07-08T10:56:52.014Z,59
2018-07-08T10:57:51.867Z,58.97
2018-07-08T10:58:51.892Z,58.88
2018-07-08T10:59:51.832Z,58.96
2018-07-08T11:00:51.927Z,58.82
2018-07-08T11:01:53.173Z,58.78
2018-07-08T11:02:51.832Z,58.71
2018-07-08T11:03:51.893Z,58.87
2018-07-08T11:04:51.899Z,58.92
2018-07-08T11:05:51.903Z,59.08
2018-07-08T11:06:51.951Z,59.12
2018-07-08T11:07:51.953Z,59.1
2018-07-08T11:08:51.961Z,59.12
2018-07-08T11:09:51.864Z,59.08
2018-07-08T11:10:52.065Z,59.03
2018-07-08T11:12:23.029Z,58.98
2018-07-08T11:12:51.911Z,58.94
2018-07-08T11:13:51.914Z,58.97
2018-07-08T11:14:51.851Z,58.95
2018-07-08T11:15:51.896Z,58.9
2018-07-08T11:16:51.954Z,58.91
2018-07-08T11:17:51.760Z,58.97
2018-07-08T11:18:51.843Z,58.9
2018-07-08T11:19:51.985Z,58.89
2018-07-08T11:20:52.437Z,58.91
2018-07-08T11:21:51.947Z,58.96
2018-07-08T11:22:52.101Z,58.86
2018-07-08T11:23:51.882Z,58.88
2018-07-08T11:24:51.970Z,58.85
2018-07-08T11:25:51.872Z,58.86
2018-07-08T11:26:51.871Z,58.91
2018-07-08T11:27:52.076Z,58.87
2018-07-08T11:28:51.912Z,58.91
2018-07-08T11:29:51.953Z,58.92
2018-07-08T11:30:51.965Z,59
2018-07-08T11:31:51.942Z,59.07
2018-07-08T11:32:51.992Z,59.1
2018-07-08T11:33:51.965Z,59.16
2018-07-08T11:34:51.932Z,59.08
2018-07-08T11:35:51.840Z,59.09
2018-07-08T11:36:52.132Z,59.12
2018-07-08T11:37:51.915Z,59.12
2018-07-08T11:38:52.149Z,59.13
2018-07-08T11:39:51.807Z,59.14
2018-07-08T11:40:52.015Z,59.17
2018-07-08T11:41:52.036Z,59.2
2018-07-08T11:42:52.693Z,59.17
2018-07-08T11:43:51.916Z,59.09
2018-07-08T11:44:51.854Z,59.14
2018-07-08T11:45:51.905Z,59.16
2018-07-08T11:46:53.258Z,59.15
2018-07-08T11:48:03.395Z,59.16
2018-07-08T11:48:51.926Z,59.16
2018-07-08T11:49:53.039Z,59.24
2018-07-08T11:50:51.965Z,59.23
2018-07-08T11:51:51.926Z,59.2
2018-07-08T11:52:51.908Z,59.16
2018-07-08T11:53:51.912Z,59.16
2018-07-08T11:54:51.867Z,59.21
2018-07-08T11:55:51.970Z,59.18
2018-07-08T11:56:51.805Z,59.23
2018-07-08T11:57:51.913Z,59.26
2018-07-08T11:58:52.073Z,59.21
2018-07-08T11:59:51.851Z,59.23
2018-07-08T12:00:51.789Z,59.21
2018-07-08T12:01:52.862Z,59.23
2018-07-08T12:02:51.814Z,59.18
2018-07-08T12:03:52.089Z,59.13
2018-07-08T12:04:51.832Z,59.15
2018-07-08T12:05:51.708Z,59.17
2018-07-08T12:06:51.894Z,59.19
2018-07-08T12:07:51.925Z,59.19
2018-07-08T12:08:52.505Z,59.2
2018-07-08T12:09:51.911Z,59.23
2018-07-08T12:10:51.953Z,59.14
2018-07-08T12:11:51.893Z,59.12
2018-07-08T12:12:51.789Z,59.16
2018-07-08T12:13:52.134Z,59.15
2018-07-08T12:14:51.999Z,59.14
2018-07-08T12:15:51.974Z,59.17
2018-07-08T12:16:51.899Z,59.21
2018-07-08T12:17:51.801Z,59.19
2018-07-08T12:18:51.961Z,59.19
2018-07-08T12:19:52.753Z,59.14
2018-07-08T12:20:51.979Z,59.12
2018-07-08T12:21:51.952Z,59.15
2018-07-08T12:22:51.926Z,59.14
2018-07-08T12:23:51.866Z,59.17
2018-07-08T12:24:51.851Z,59.19
2018-07-08T12:25:51.907Z,59.24
2018-07-08T12:26:51.911Z,59.18
2018-07-08T12:27:51.965Z,59.11
2018-07-08T12:28:52.035Z,59.17
2018-07-08T12:29:52.017Z,59.17
2018-07-08T12:30:51.952Z,59.16
2018-07-08T12:31:51.734Z,59.22
2018-07-08T12:32:51.841Z,59.14
2018-07-08T12:33:51.748Z,59.16
2018-07-08T12:34:51.969Z,59.1
2018-07-08T12:35:51.724Z,59.14
2018-07-08T12:36:52.970Z,59.15
2018-07-08T12:37:52.117Z,59.14
2018-07-08T12:38:51.872Z,59.11
2018-07-08T12:39:51.797Z,59.17
2018-07-08T12:40:51.864Z,59.13
2018-07-08T12:42:23.988Z,59.02
2018-07-08T12:42:51.958Z,59.01
2018-07-08T12:43:52.104Z,58.97
2018-07-08T12:44:53.224Z,58.92
2018-07-08T12:45:52.001Z,58.86
2018-07-08T12:46:51.868Z,58.9
2018-07-08T12:47:51.867Z,58.87
2018-07-08T12:48:51.857Z,58.82
2018-07-08T12:49:51.933Z,58.81
2018-07-08T12:50:51.791Z,58.81
2018-07-08T12:51:51.998Z,58.83
2018-07-08T12:52:52.153Z,58.82
2018-07-08T12:53:51.942Z,58.87
2018-07-08T12:54:51.933Z,58.83
2018-07-08T12:55:51.847Z,58.92